KOLY

Olney-Noble Airport

Olney-Noble, Illinois, USA
METAR KOLY 231055Z AUTO 25011G18KT 10SM OVC016 02/01 A2976 RMK AO2 T00210008
Observed Flight Rules
Jan-23 @ 10:55 UTC (57 minutes ago) Marginal Visual Flight Rules
Wind Visibility Clouds
250° at 11 knots
 Gusting to 18 knots
10 miles
  • Overcast at 1,600' AGL
Temperatures Readings
Current 2°C / 36°F
Dewpoint 1°C / 34°F
Humidity 93%
Altimeter 29.76" Hg
Pressure 1008 hPa
Elevation 147
METAR KOLY 231055Z AUTO 25011G18KT 10SM OVC016 02/01 A2976 RMK AO2 T00210008
Observed Flight Rules
Jan-23 @ 10:55 UTC
(57 minutes ago)
MVFR
Wind Visibility
250° at 11 knots
 Gusting to 18 knots
10 miles
Clouds
  • Overcast at 1,600' AGL
Temperature Dewpoint
2°C / 36°F 1°C / 34°F
Humidity Altimeter Pressure
93% 29.76" Hg 1008 hPa